Time;durP1;ratioP1;P1;durP2;ratioP2;P2;SDS_P1;SDS_P2;PMS_P1;PMS_P2;Temp;Humidity;BMP_temperature;BMP_pressure;BME280_temperature;BME280_humidity;BME280_pressure;Samples;Min_cycle;Max_cycle;Signal;HPM_P1;HPM_P2
2023/04/22 00:02:07;;;;;;;19.15;7.55;;;;;;;4.94;100.00;100684.41;4953770;29;20031;-93
2023/04/22 00:04:33;;;;;;;14.93;7.27;;;;;;;5.00;100.00;100699.47;4944304;29;20043;-92
2023/04/22 00:06:59;;;;;;;14.45;6.97;;;;;;;4.98;100.00;100699.69;4944242;29;20023;-92
2023/04/22 00:09:25;;;;;;;13.03;6.03;;;;;;;4.95;100.00;100700.13;4916083;29;20111;-93
2023/04/22 00:11:51;;;;;;;11.30;5.90;;;;;;;4.82;100.00;100681.69;4958255;29;20271;-92
2023/04/22 00:14:16;;;;;;;11.10;6.25;;;;;;;4.76;100.00;100683.41;4966345;28;20015;-92
2023/04/22 00:16:41;;;;;;;10.97;6.17;;;;;;;4.74;100.00;100684.66;4949590;29;20028;-92
2023/04/22 00:19:07;;;;;;;11.47;6.20;;;;;;;4.72;100.00;100692.03;4958689;28;20063;-93
2023/04/22 00:21:32;;;;;;;12.37;6.33;;;;;;;4.66;100.00;100683.94;4957957;28;20027;-93
2023/04/22 00:23:57;;;;;;;15.10;6.50;;;;;;;4.66;100.00;100688.41;4954616;28;20183;-93
2023/04/22 00:26:23;;;;;;;8.85;5.80;;;;;;;4.64;100.00;100696.59;4945002;29;20028;-92
2023/04/22 00:28:48;;;;;;;12.07;7.53;;;;;;;4.54;100.00;100669.78;4947831;29;20395;-93
2023/04/22 00:31:13;;;;;;;9.53;6.70;;;;;;;4.60;100.00;100690.09;4957872;29;20039;-92
2023/04/22 00:33:39;;;;;;;8.70;6.23;;;;;;;4.50;100.00;100685.31;4955926;28;20043;-93
2023/04/22 00:36:05;;;;;;;10.35;6.45;;;;;;;4.51;100.00;100691.44;4966988;28;20031;-94
2023/04/22 00:38:30;;;;;;;9.57;5.93;;;;;;;4.48;100.00;100695.34;4966841;29;20099;-92
2023/04/22 00:40:56;;;;;;;10.33;6.80;;;;;;;4.43;100.00;100686.41;4961548;29;20091;-93
2023/04/22 00:43:21;;;;;;;11.77;6.85;;;;;;;4.34;100.00;100675.28;4939040;29;20024;-93
2023/04/22 00:45:48;;;;;;;11.33;6.47;;;;;;;4.42;100.00;100679.47;4923355;29;20369;-94
2023/04/22 00:48:13;;;;;;;10.95;6.55;;;;;;;4.28;100.00;100665.56;4924057;29;20059;-94
2023/04/22 00:50:39;;;;;;;11.03;6.77;;;;;;;4.32;100.00;100688.78;4958965;28;20023;-93
2023/04/22 00:53:05;;;;;;;9.05;6.05;;;;;;;4.31;100.00;100692.47;4961580;28;20108;-93
2023/04/22 00:55:31;;;;;;;10.97;6.53;;;;;;;4.27;100.00;100691.25;4963255;28;20039;-93
2023/04/22 00:57:59;;;;;;;11.68;6.85;;;;;;;4.22;100.00;100685.78;4974583;28;20058;-93
2023/04/22 01:00:27;;;;;;;13.73;7.43;;;;;;;4.21;100.00;100684.16;4959939;28;20023;-92
2023/04/22 01:02:57;;;;;;;10.00;6.50;;;;;;;4.31;100.00;100683.66;4962864;28;20011;-93
2023/04/22 01:05:23;;;;;;;10.25;6.47;;;;;;;4.40;100.00;100691.13;4956852;28;20039;-94
2023/04/22 01:07:50;;;;;;;10.70;6.85;;;;;;;4.46;100.00;100688.63;4922412;29;20055;-93
2023/04/22 01:10:15;;;;;;;11.37;6.80;;;;;;;4.45;100.00;100684.34;4939818;29;20023;-93
2023/04/22 01:12:41;;;;;;;10.53;7.30;;;;;;;4.51;100.00;100678.97;4940599;29;20307;-94
2023/04/22 01:15:07;;;;;;;11.57;7.15;;;;;;;4.50;100.00;100679.22;4946802;29;20083;-91
2023/04/22 01:17:33;;;;;;;12.80;7.07;;;;;;;4.61;100.00;100686.41;4926354;29;20493;-93
2023/04/22 01:19:59;;;;;;;11.30;6.82;;;;;;;4.61;100.00;100669.69;4949539;29;20031;-92
2023/04/22 01:22:34;;;;;;;11.48;7.28;;;;;;;4.73;100.00;100677.75;4940321;29;20015;-90
2023/04/22 01:25:02;;;;;;;9.70;6.73;;;;;;;4.77;100.00;100669.09;4915871;29;20060;-90
2023/04/22 01:27:27;;;;;;;11.90;7.33;;;;;;;4.77;100.00;100662.97;4932122;29;20303;-91
2023/04/22 01:29:53;;;;;;;14.07;7.60;;;;;;;4.82;100.00;100665.78;4953147;29;20108;-90
2023/04/22 01:32:18;;;;;;;10.80;7.33;;;;;;;4.92;100.00;100678.53;4952496;29;20075;-90
2023/04/22 01:34:44;;;;;;;9.70;7.57;;;;;;;4.93;100.00;100669.53;4968805;28;20027;-90
2023/04/22 01:37:09;;;;;;;11.03;6.97;;;;;;;4.99;100.00;100669.44;4936551;29;20024;-90
2023/04/22 01:39:34;;;;;;;11.77;6.97;;;;;;;5.02;100.00;100672.69;4937345;28;20023;-91
2023/04/22 01:42:02;;;;;;;9.63;7.17;;;;;;;4.96;100.00;100651.28;4933743;29;20115;-90
2023/04/22 01:44:28;;;;;;;11.70;7.53;;;;;;;4.99;100.00;100661.47;4951358;28;20479;-90
2023/04/22 01:46:56;;;;;;;11.48;7.22;;;;;;;4.97;100.00;100660.88;4949878;28;20408;-90
2023/04/22 01:49:23;;;;;;;11.73;6.70;;;;;;;4.85;100.00;100646.75;4937492;29;20048;-90
2023/04/22 01:51:48;;;;;;;9.13;6.70;;;;;;;4.93;100.00;100666.88;4919499;29;20449;-91
2023/04/22 01:54:14;;;;;;;8.67;6.87;;;;;;;4.94;100.00;100657.88;4934647;29;20110;-90
2023/04/22 01:56:42;;;;;;;9.70;6.65;;;;;;;4.95;100.00;100662.94;4946796;28;20043;-90
2023/04/22 01:59:08;;;;;;;10.00;6.90;;;;;;;4.73;100.00;100627.31;4947922;29;20356;-90
2023/04/22 02:01:33;;;;;;;9.87;6.70;;;;;;;4.97;100.00;100662.72;4950532;29;20065;-91
2023/04/22 02:09:01;;;;;;;9.57;7.30;;;;;;;5.00;100.00;100659.63;4943626;29;20051;-91
2023/04/22 02:11:26;;;;;;;9.63;7.17;;;;;;;4.98;100.00;100648.41;4948796;28;20046;-91
2023/04/22 02:13:52;;;;;;;11.75;6.80;;;;;;;5.01;100.00;100653.28;4925748;29;20036;-92
2023/04/22 02:16:17;;;;;;;8.40;6.63;;;;;;;4.98;100.00;100651.88;4933779;29;20031;-90
2023/04/22 02:18:42;;;;;;;8.87;7.30;;;;;;;5.02;100.00;100659.41;4956664;28;20510;-91
2023/04/22 02:21:08;;;;;;;10.97;7.00;;;;;;;5.00;100.00;100639.19;4950774;28;20484;-91
2023/04/22 02:23:35;;;;;;;10.87;7.57;;;;;;;5.03;100.00;100655.72;4950172;29;20038;-91
2023/04/22 02:26:02;;;;;;;8.53;6.70;;;;;;;4.89;100.00;100633.81;4933703;29;20650;-91
2023/04/22 02:28:28;;;;;;;10.70;7.20;;;;;;;4.92;100.00;100641.34;4971388;28;20031;-92
2023/04/22 02:38:38;;;;;;;12.67;8.37;;;;;;;5.10;100.00;100645.81;5460597;23;20342;-90
2023/04/22 02:41:05;;;;;;;11.60;7.90;;;;;;;5.10;100.00;100645.81;4937622;29;20087;-91
2023/04/22 02:43:31;;;;;;;13.37;8.50;;;;;;;5.12;100.00;100646.38;4922168;29;20032;-91
2023/04/22 02:45:56;;;;;;;10.67;7.90;;;;;;;5.07;100.00;100632.97;4942076;29;20437;-90
2023/04/22 02:48:21;;;;;;;11.17;8.17;;;;;;;5.09;100.00;100639.69;4947404;29;20063;-90
2023/04/22 02:50:47;;;;;;;9.57;7.30;;;;;;;5.07;100.00;100635.63;4927485;29;20030;-91
2023/04/22 02:53:12;;;;;;;10.83;7.87;;;;;;;5.04;100.00;100630.78;4928461;29;20028;-90
2023/04/22 02:55:39;;;;;;;12.70;8.40;;;;;;;5.09;100.00;100633.56;4935710;29;20109;-94
2023/04/22 02:58:05;;;;;;;11.43;7.55;;;;;;;5.04;100.00;100620.16;4936222;29;20040;-94
2023/04/22 03:00:30;;;;;;;10.45;7.75;;;;;;;5.11;100.00;100628.84;4929455;29;20079;-93
2023/04/22 03:02:55;;;;;;;11.73;7.93;;;;;;;5.11;100.00;100636.81;4912522;29;20080;-94
2023/04/22 03:05:21;;;;;;;10.43;7.73;;;;;;;5.13;100.00;100632.06;4908098;29;20492;-94
2023/04/22 03:07:48;;;;;;;11.03;8.03;;;;;;;5.10;100.00;100625.38;4922632;29;20056;-94
2023/04/22 03:10:13;;;;;;;10.40;8.27;;;;;;;5.15;100.00;100624.69;4938270;29;20021;-93
2023/04/22 03:12:39;;;;;;;11.88;8.68;;;;;;;5.14;100.00;100623.06;4939284;29;20094;-94
2023/04/22 03:15:06;;;;;;;11.23;8.97;;;;;;;5.18;100.00;100618.91;4939186;29;20012;-94
2023/04/22 03:17:31;;;;;;;13.32;8.52;;;;;;;5.22;100.00;100621.91;4937917;29;20048;-94
2023/04/22 03:19:56;;;;;;;14.90;8.60;;;;;;;5.17;100.00;100627.13;4925620;29;20036;-93
2023/04/22 03:22:22;;;;;;;11.50;8.10;;;;;;;5.16;100.00;100613.03;4938578;29;20028;-94
2023/04/22 03:24:47;;;;;;;11.70;8.37;;;;;;;5.17;100.00;100616.50;4921170;29;20047;-94
2023/04/22 03:27:12;;;;;;;14.07;8.20;;;;;;;5.07;100.00;100603.75;4925266;29;20028;-93
2023/04/22 03:29:38;;;;;;;11.45;8.23;;;;;;;5.17;100.00;100613.84;4936302;29;20036;-94
2023/04/22 03:32:03;;;;;;;9.83;7.97;;;;;;;5.11;100.00;100599.63;4922869;29;20038;-93
2023/04/22 03:34:29;;;;;;;10.83;8.30;;;;;;;5.10;100.00;100593.50;4923108;29;20050;-93
2023/04/22 03:36:54;;;;;;;11.82;8.85;;;;;;;5.14;100.00;100597.31;4923155;29;20043;-94
2023/04/22 03:39:20;;;;;;;11.50;8.83;;;;;;;5.13;100.00;100595.69;4923130;29;20492;-93
2023/04/22 03:41:45;;;;;;;12.87;8.67;;;;;;;5.16;100.00;100597.06;4924191;29;20480;-94
2023/04/22 03:44:10;;;;;;;11.10;8.47;;;;;;;5.12;100.00;100583.44;4912800;29;20025;-94
2023/04/22 03:46:36;;;;;;;11.67;8.53;;;;;;;5.08;100.00;100576.97;4920006;29;20087;-95
2023/04/22 03:49:02;;;;;;;12.02;8.57;;;;;;;5.13;100.00;100587.72;4923094;29;20063;-94
2023/04/22 03:51:27;;;;;;;12.03;9.27;;;;;;;5.11;100.00;100589.78;4924668;29;20024;-94
2023/04/22 03:53:53;;;;;;;13.18;9.02;;;;;;;5.17;100.00;100584.63;4920060;29;20025;-94
2023/04/22 03:56:20;;;;;;;17.03;9.53;;;;;;;5.11;100.00;100570.41;4920830;29;20038;-94
2023/04/22 03:58:45;;;;;;;12.32;9.05;;;;;;;5.15;100.00;100580.34;4920680;29;20066;-94
2023/04/22 04:01:10;;;;;;;14.30;9.43;;;;;;;5.12;100.00;100574.66;4918288;29;20449;-94
2023/04/22 04:03:35;;;;;;;13.57;8.83;;;;;;;5.13;100.00;100576.28;4930421;29;20023;-93
2023/04/22 04:06:02;;;;;;;14.17;9.93;;;;;;;5.19;100.00;100586.00;4941528;28;20304;-93
2023/04/22 04:08:28;;;;;;;12.67;9.43;;;;;;;5.16;100.00;100581.13;4938089;29;20087;-94
2023/04/22 04:10:53;;;;;;;15.67;9.90;;;;;;;5.18;100.00;100578.28;4926677;29;20728;-93
2023/04/22 04:13:18;;;;;;;17.40;9.80;;;;;;;5.21;100.00;100573.31;4928550;29;20433;-94
2023/04/22 04:15:44;;;;;;;13.17;8.97;;;;;;;5.14;100.00;100562.78;4929065;29;20028;-94
2023/04/22 04:18:10;;;;;;;13.73;10.03;;;;;;;5.21;100.00;100575.13;4923792;29;20024;-94
2023/04/22 04:20:35;;;;;;;13.38;9.45;;;;;;;5.21;100.00;100572.47;4906364;29;20102;-94
2023/04/22 04:23:01;;;;;;;11.87;9.03;;;;;;;5.21;100.00;100570.66;4921553;29;20544;-94
2023/04/22 04:25:28;;;;;;;14.02;10.52;;;;;;;5.24;100.00;100566.72;4919715;29;20040;-92
2023/04/22 04:27:53;;;;;;;13.83;9.33;;;;;;;5.25;100.00;100574.47;4917996;29;20036;-92
2023/04/22 04:30:20;;;;;;;12.18;8.85;;;;;;;5.14;100.00;100551.34;4918707;29;20028;-91
2023/04/22 04:32:45;;;;;;;14.70;10.10;;;;;;;5.22;100.00;100566.97;4917542;29;20036;-91
2023/04/22 04:35:14;;;;;;;15.00;10.40;;;;;;;5.28;100.00;100574.03;4919658;29;20299;-92
2023/04/22 04:37:42;;;;;;;15.53;10.63;;;;;;;5.26;100.00;100567.31;4918552;29;20096;-92
2023/04/22 04:40:09;;;;;;;14.80;10.33;;;;;;;5.07;100.00;100546.13;4916863;29;22295;-92
2023/04/22 04:42:34;;;;;;;14.48;9.93;;;;;;;5.28;100.00;100582.00;4922146;29;20024;-92
2023/04/22 04:45:00;;;;;;;16.23;10.80;;;;;;;5.22;100.00;100564.31;4927060;29;20024;-92
2023/04/22 04:47:25;;;;;;;14.23;10.30;;;;;;;5.30;100.00;100566.59;4932075;29;20036;-92
2023/04/22 04:49:52;;;;;;;15.90;10.90;;;;;;;5.33;100.00;100573.34;4923734;29;20480;-94
2023/04/22 04:52:18;;;;;;;13.93;10.70;;;;;;;5.30;100.00;100561.28;4936309;29;20024;-93
2023/04/22 04:54:43;;;;;;;13.63;10.60;;;;;;;5.39;100.00;100566.28;4949582;28;20452;-92
2023/04/22 04:57:09;;;;;;;15.40;11.27;;;;;;;5.48;100.00;100577.38;4923615;29;20199;-91
2023/04/22 04:59:34;;;;;;;15.27;10.60;;;;;;;5.45;100.00;100566.19;4915616;29;20063;-89
2023/04/22 05:02:00;;;;;;;16.70;11.27;;;;;;;5.53;100.00;100575.66;4910919;29;20035;-89
2023/04/22 05:04:25;;;;;;;15.77;10.57;;;;;;;5.55;100.00;100583.41;4919947;29;20040;-89
2023/04/22 05:06:50;;;;;;;15.23;11.47;;;;;;;5.58;100.00;100581.09;4916894;29;20024;-89
2023/04/22 05:09:28;;;;;;;14.73;11.33;;;;;;;5.64;100.00;100590.00;4950616;23;20119;-89
2023/04/22 05:11:56;;;;;;;15.00;10.63;;;;;;;5.38;100.00;100525.63;4937897;29;20310;-89
2023/04/22 05:14:22;;;;;;;15.25;11.23;;;;;;;5.63;100.00;100564.44;4934775;29;20087;-86
2023/04/22 05:16:50;;;;;;;18.40;12.27;;;;;;;5.79;100.00;100584.22;4944840;28;20027;-87
2023/04/22 05:19:18;;;;;;;17.67;12.23;;;;;;;5.64;100.00;100539.50;4941964;29;20042;-87
2023/04/22 05:22:42;;;;;;;16.97;11.97;;;;;;;5.88;100.00;100564.22;4939845;29;20043;-87
2023/04/22 05:25:07;;;;;;;19.03;11.33;;;;;;;5.93;100.00;100560.06;4976388;23;20315;-87
2023/04/22 05:27:33;;;;;;;17.40;11.68;;;;;;;6.02;100.00;100572.00;4933721;29;20051;-87
2023/04/22 05:29:58;;;;;;;16.23;11.77;;;;;;;6.10;100.00;100570.81;4933572;29;20032;-89
2023/04/22 05:32:24;;;;;;;14.20;11.40;;;;;;;6.11;100.00;100559.94;4933732;29;20031;-88
2023/04/22 06:03:10;;;;;;;19.20;14.35;;;;;;;7.28;100.00;100525.03;5048288;23;20055;-87
2023/04/22 06:05:48;;;;;;;17.80;13.87;;;;;;;7.45;100.00;100544.75;4953924;23;20032;-88
2023/04/22 06:08:19;;;;;;;21.13;15.45;;;;;;;7.44;100.00;100522.59;4916550;29;20492;-87
2023/04/22 06:10:44;;;;;;;19.50;15.23;;;;;;;7.87;100.00;100565.59;4920041;29;20032;-87
2023/04/22 06:13:09;;;;;;;18.90;14.87;;;;;;;7.95;100.00;100556.34;4921241;29;20024;-87
2023/04/22 06:15:35;;;;;;;18.13;14.50;;;;;;;8.11;100.00;100568.88;4908905;29;20032;-87
2023/04/22 06:18:01;;;;;;;20.45;15.20;;;;;;;8.08;100.00;100557.84;4881414;29;20033;-87
2023/04/22 06:20:26;;;;;;;20.70;14.60;;;;;;;8.22;100.00;100580.44;4897832;29;20028;-87
2023/04/22 06:22:51;;;;;;;19.73;13.63;;;;;;;8.24;100.00;100570.34;4887564;29;20025;-87
2023/04/22 06:25:17;;;;;;;17.65;14.88;;;;;;;8.24;100.00;100565.00;4889846;29;20035;-88
2023/04/22 06:27:42;;;;;;;20.30;15.37;;;;;;;8.23;100.00;100558.03;4894834;29;20039;-89
2023/04/22 06:30:10;;;;;;;18.70;14.97;;;;;;;8.21;100.00;100548.69;4903395;29;20458;-88
2023/04/22 06:32:35;;;;;;;21.60;14.90;;;;;;;8.33;100.00;100552.84;4904049;29;20465;-88
2023/04/22 06:35:03;;;;;;;21.20;15.87;;;;;;;8.38;100.00;100552.09;4903375;29;20040;-87
2023/04/22 06:37:29;;;;;;;23.50;17.42;;;;;;;8.27;100.00;100529.00;4977300;23;20078;-88
2023/04/22 06:39:54;;;;;;;21.53;16.77;;;;;;;8.57;100.00;100557.13;4957823;29;20058;-87
2023/04/22 06:42:20;;;;;;;21.35;16.48;;;;;;;8.61;100.00;100536.88;4936535;29;20027;-87
2023/04/22 07:06:13;;;;;;;20.65;15.63;;;;;;;9.75;100.00;100549.28;5327547;23;20440;-86
2023/04/22 07:08:38;;;;;;;20.75;14.60;;;;;;;9.97;100.00;100549.13;4905970;29;20039;-85
2023/04/22 07:11:05;;;;;;;20.70;15.60;;;;;;;10.23;100.00;100556.44;4920882;29;20507;-86
2023/04/22 07:13:32;;;;;;;21.67;14.57;;;;;;;10.47;100.00;100534.59;4914580;29;20032;-85
2023/04/22 07:15:59;;;;;;;20.13;14.77;;;;;;;10.84;100.00;100545.16;4906328;29;20028;-85
2023/04/22 07:18:29;;;;;;;19.42;13.90;;;;;;;11.20;100.00;100547.03;4902141;29;20043;-84
2023/04/22 07:20:55;;;;;;;16.73;12.90;;;;;;;11.39;100.00;100543.78;4932891;29;20123;-85
2023/04/22 07:23:20;;;;;;;18.10;12.50;;;;;;;11.47;100.00;100548.63;4935036;29;20315;-84
2023/04/22 07:25:45;;;;;;;14.47;12.20;;;;;;;11.45;100.00;100546.19;4931104;29;20094;-85
2023/04/22 07:28:11;;;;;;;16.20;12.00;;;;;;;11.47;100.00;100551.31;4916088;29;20039;-86
2023/04/22 07:30:36;;;;;;;15.03;11.77;;;;;;;11.40;100.00;100537.34;4912800;29;20123;-86
2023/04/22 07:33:01;;;;;;;19.03;12.60;;;;;;;11.62;100.00;100559.34;4913640;29;20048;-87
2023/04/22 07:35:27;;;;;;;17.98;13.23;;;;;;;11.70;100.00;100551.78;4917853;29;20043;-85
2023/04/22 07:48:13;;;;;;;17.30;12.52;;;;;;;11.43;100.00;100531.44;5719920;23;20079;-87
2023/04/22 07:50:38;;;;;;;17.80;11.63;;;;;;;11.60;100.00;100550.75;4954727;28;20378;-87
2023/04/22 07:53:05;;;;;;;14.33;11.47;;;;;;;11.68;100.00;100562.00;4954493;28;20034;-89
2023/04/22 07:55:30;;;;;;;15.50;12.18;;;;;;;11.71;100.00;100548.03;4952215;28;20043;-88
2023/04/22 07:57:59;;;;;;;15.27;12.02;;;;;;;11.81;100.00;100534.59;4933821;29;20037;-87
2023/04/22 08:00:25;;;;;;;17.17;12.07;;;;;;;11.91;100.00;100534.56;4948286;28;20543;-87
2023/04/22 08:02:50;;;;;;;13.20;11.57;;;;;;;12.03;100.00;100536.16;4954654;28;20298;-86
2023/04/22 08:05:15;;;;;;;15.57;11.83;;;;;;;12.14;100.00;100531.56;4954435;29;20040;-88
2023/04/22 08:07:41;;;;;;;18.27;11.00;;;;;;;12.25;100.00;100525.84;4955519;29;20042;-86
2023/04/22 08:10:08;;;;;;;17.97;10.50;;;;;;;12.32;100.00;100517.50;4932016;28;20168;-86
2023/04/22 08:12:36;;;;;;;12.23;10.10;;;;;;;12.36;100.00;100512.38;4915457;29;20193;-85
2023/04/22 08:15:01;;;;;;;12.43;10.25;;;;;;;12.49;100.00;100510.97;4930804;29;20043;-86
2023/04/22 08:17:27;;;;;;;11.53;9.90;;;;;;;12.72;100.00;100522.91;4918841;29;20182;-85
2023/04/22 08:19:55;;;;;;;15.38;9.93;;;;;;;12.86;100.00;100515.81;4929651;29;20043;-87
2023/04/22 08:22:22;;;;;;;16.52;10.27;;;;;;;13.19;100.00;100515.28;4935175;29;20111;-87
2023/04/22 08:24:48;;;;;;;13.53;10.30;;;;;;;13.71;100.00;100517.47;4936569;29;20019;-87
2023/04/22 08:27:13;;;;;;;13.20;9.13;;;;;;;14.18;100.00;100518.53;4936819;29;20451;-87
2023/04/22 08:29:42;;;;;;;11.33;8.90;;;;;;;14.48;100.00;100505.75;4934530;29;20039;-87
2023/04/22 08:32:08;;;;;;;10.63;7.85;;;;;;;14.81;100.00;100508.50;4937864;29;20399;-88
2023/04/22 08:34:33;;;;;;;11.90;7.93;;;;;;;15.00;100.00;100518.47;4931774;29;20045;-86
2023/04/22 08:36:59;;;;;;;10.43;7.57;;;;;;;15.17;100.00;100519.78;4930634;29;20024;-88
2023/04/22 08:39:24;;;;;;;9.10;7.70;;;;;;;15.14;100.00;100519.28;4936576;29;20027;-88
2023/04/22 08:41:52;;;;;;;9.20;7.33;;;;;;;15.26;100.00;100501.81;4939317;29;20138;-88
2023/04/22 08:44:18;;;;;;;9.07;7.23;;;;;;;15.28;98.50;100499.63;4937234;29;20283;-87
2023/04/22 08:49:35;;;;;;;8.30;5.70;;;;;;;15.18;97.96;100480.91;4940769;29;20040;-88
2023/04/22 09:16:41;;;;;;;7.60;5.88;;;;;;;16.50;88.90;100473.09;5383111;23;20062;-87
2023/04/22 09:19:16;;;;;;;7.28;6.28;;;;;;;16.27;86.88;100460.66;4937809;29;20114;-87
2023/04/22 09:22:28;;;;;;;9.02;6.90;;;;;;;16.23;90.94;100438.84;4933625;29;20054;-88
2023/04/22 09:25:03;;;;;;;9.20;5.75;;;;;;;16.47;88.98;100468.31;4840929;29;20251;-87
2023/04/22 09:27:28;;;;;;;8.40;6.30;;;;;;;16.42;88.08;100435.19;4850927;29;20478;-88
2023/04/22 09:29:54;;;;;;;6.90;6.20;;;;;;;16.65;86.78;100466.53;4891502;29;20047;-87
2023/04/22 09:32:19;;;;;;;8.13;6.03;;;;;;;16.57;87.39;100447.56;4917517;29;20024;-87
2023/04/22 09:34:51;;;;;;;8.82;6.45;;;;;;;16.62;88.20;100442.00;4917176;29;20103;-86
2023/04/22 09:37:27;;;;;;;7.10;6.40;;;;;;;16.66;85.95;100456.50;4899100;29;20040;-86
2023/04/22 09:39:53;;;;;;;7.33;6.23;;;;;;;16.63;87.59;100451.72;4921091;29;20307;-86
2023/04/22 09:42:20;;;;;;;9.45;6.22;;;;;;;16.71;87.46;100456.41;4911374;29;20443;-83
2023/04/22 09:44:47;;;;;;;8.13;5.90;;;;;;;16.59;85.57;100456.16;4908651;29;20452;-86
2023/04/22 09:47:13;;;;;;;6.72;6.00;;;;;;;16.71;86.84;100453.69;4913122;29;20059;-84
2023/04/22 09:49:38;;;;;;;8.02;5.55;;;;;;;16.84;85.62;100454.72;4917744;29;20043;-84
2023/04/22 09:52:04;;;;;;;6.80;5.57;;;;;;;16.85;84.65;100466.34;4915876;29;20182;-85
2023/04/22 09:59:40;;;;;;;7.47;5.20;;;;;;;17.53;83.66;100461.59;5877341;23;20119;-83
2023/04/22 10:02:08;;;;;;;7.32;5.30;;;;;;;17.62;81.88;100455.41;4934512;29;20039;-85
2023/04/22 10:04:33;;;;;;;7.33;5.77;;;;;;;17.63;81.40;100463.22;4933248;29;20026;-84
2023/04/22 10:07:01;;;;;;;8.30;5.80;;;;;;;17.62;80.07;100469.75;4939683;29;20390;-83
2023/04/22 10:09:29;;;;;;;7.43;5.93;;;;;;;17.92;78.50;100471.91;4937353;29;20634;-83
2023/04/22 10:11:59;;;;;;;7.40;6.25;;;;;;;18.41;76.72;100469.09;4952902;29;20047;-85
2023/04/22 10:14:25;;;;;;;8.13;6.18;;;;;;;18.69;77.63;100466.84;4923908;29;20059;-87
2023/04/22 10:16:57;;;;;;;11.88;6.10;;;;;;;18.87;76.28;100462.16;4952415;28;20106;-86
2023/04/22 10:19:24;;;;;;;6.72;5.40;;;;;;;18.70;74.22;100468.44;4958498;29;20034;-89
2023/04/22 10:21:55;;;;;;;6.13;5.63;;;;;;;18.60;75.51;100476.91;4945044;29;20030;-89
2023/04/22 10:24:25;;;;;;;7.30;5.70;;;;;;;18.97;75.22;100473.84;4939038;28;20781;-86
2023/04/22 10:26:55;;;;;;;6.68;5.28;;;;;;;19.50;72.89;100477.97;4941825;28;20101;-85
2023/04/22 10:29:22;;;;;;;7.75;6.18;;;;;;;19.97;71.04;100476.28;4933812;28;20055;-86
2023/04/22 10:32:02;;;;;;;6.85;5.75;;;;;;;20.10;68.45;100472.50;4933801;29;20047;-85
2023/04/22 10:52:28;;;;;;;6.70;4.10;;;;;;;18.61;68.75;100448.66;5210660;23;20323;-84
2023/04/22 10:54:57;;;;;;;4.90;3.50;;;;;;;18.54;68.49;100460.00;4944819;29;20501;-84
2023/04/22 10:57:34;;;;;;;4.22;3.83;;;;;;;18.57;69.59;100447.69;4950862;28;20081;-85
2023/04/22 11:00:00;;;;;;;4.28;3.63;;;;;;;18.74;70.54;100453.09;4952332;28;20171;-85
2023/04/22 11:02:25;;;;;;;4.13;3.42;;;;;;;18.87;69.96;100464.09;4945830;28;20091;-85
2023/04/22 11:05:11;;;;;;;4.70;3.70;;;;;;;18.73;69.06;100458.84;4941397;28;20399;-85
2023/04/22 11:07:36;;;;;;;7.38;3.83;;;;;;;18.43;68.17;100469.59;4946562;29;20032;-84
2023/04/22 11:10:06;;;;;;;5.73;4.10;;;;;;;17.99;69.73;100464.09;4949854;28;20162;-85
2023/04/22 11:12:37;;;;;;;5.55;3.80;;;;;;;17.68;72.17;100471.22;4943460;29;20122;-83
2023/04/22 11:15:05;;;;;;;5.57;4.10;;;;;;;17.39;73.40;100459.00;4951174;28;20075;-84
2023/04/22 11:17:32;;;;;;;5.13;3.78;;;;;;;17.21;76.86;100454.63;4951670;29;20094;-84
2023/04/22 11:19:58;;;;;;;6.40;4.10;;;;;;;16.88;85.11;100460.31;4949476;28;20023;-87
2023/04/22 11:22:27;;;;;;;5.83;4.77;;;;;;;16.41;91.68;100460.63;4930738;28;20245;-87
2023/04/22 11:24:53;;;;;;;6.22;4.40;;;;;;;16.07;98.52;100456.53;4951123;29;20027;-87
2023/04/22 11:27:25;;;;;;;8.27;4.75;;;;;;;15.92;100.00;100460.34;4950778;28;20110;-88
2023/04/22 11:30:11;;;;;;;7.45;4.93;;;;;;;15.91;100.00;100459.56;4933529;29;20083;-87
2023/04/22 11:32:39;;;;;;;5.82;4.55;;;;;;;15.93;100.00;100456.53;4948128;29;20032;-89
2023/04/22 11:35:07;;;;;;;6.85;4.53;;;;;;;16.00;100.00;100470.44;4935409;29;20071;-86
2023/04/22 11:37:45;;;;;;;7.68;5.40;;;;;;;16.02;99.15;100465.53;4951530;28;20064;-88
2023/04/22 11:40:18;;;;;;;7.53;5.15;;;;;;;15.90;99.29;100453.34;4947948;28;20035;-89
2023/04/22 11:42:44;;;;;;;6.23;5.47;;;;;;;15.97;100.00;100465.66;4952246;28;20023;-88
2023/04/22 11:45:12;;;;;;;6.03;5.27;;;;;;;16.11;99.79;100468.34;4948366;28;20367;-87
2023/04/22 11:47:45;;;;;;;9.55;5.47;;;;;;;16.24;100.00;100477.50;4933626;29;20031;-88
2023/04/22 11:50:15;;;;;;;7.82;6.10;;;;;;;16.22;98.62;100474.31;4952259;29;20027;-89
2023/04/22 11:52:58;;;;;;;8.45;6.00;;;;;;;16.35;100.00;100466.13;4952943;28;20130;-88
2023/04/22 11:55:29;;;;;;;7.35;5.40;;;;;;;16.46;98.63;100479.44;4950078;28;20150;-87
2023/04/22 11:57:59;;;;;;;6.95;5.63;;;;;;;16.43;99.84;100467.31;4940609;29;20410;-88
2023/04/22 12:00:50;;;;;;;7.22;6.13;;;;;;;16.51;98.98;100465.81;4952459;28;20031;-88
2023/04/22 12:03:27;;;;;;;7.85;6.00;;;;;;;16.58;98.57;100457.25;4955148;28;20050;-88
2023/04/22 12:05:58;;;;;;;9.18;6.05;;;;;;;16.60;95.97;100460.47;4959679;29;20043;-89
2023/04/22 12:08:46;;;;;;;10.73;5.77;;;;;;;16.72;96.40;100468.81;4972186;29;20035;-88
2023/04/22 12:11:44;;;;;;;7.90;6.13;;;;;;;16.78;93.94;100458.66;4970708;29;20286;-88
2023/04/22 12:14:10;;;;;;;8.40;6.30;;;;;;;17.00;94.43;100449.75;4967271;28;20034;-88
2023/04/22 12:16:56;;;;;;;6.53;5.78;;;;;;;17.25;91.45;100442.06;4949173;29;20043;-88
2023/04/22 12:19:58;;;;;;;9.07;5.90;;;;;;;17.64;91.94;100455.88;4957597;28;20030;-88
2023/04/22 12:22:44;;;;;;;6.43;5.83;;;;;;;17.86;88.21;100458.50;4957348;28;20039;-87
2023/04/22 12:25:10;;;;;;;10.75;7.07;;;;;;;17.96;87.75;100432.22;4980113;23;20050;-87
2023/04/22 12:27:35;;;;;;;9.82;6.80;;;;;;;18.28;85.29;100479.78;4904375;29;20103;-87
2023/04/22 12:30:07;;;;;;;9.30;6.67;;;;;;;17.99;84.95;100455.97;4899060;29;20512;-88
2023/04/22 12:54:28;;;;;;;12.77;8.90;;;;;;;15.47;100.00;100504.97;5979072;23;20340;-86
2023/04/22 12:57:18;;;;;;;10.45;9.35;;;;;;;14.90;100.00;100507.81;4934778;29;20544;-87
2023/04/22 12:59:46;;;;;;;11.05;9.45;;;;;;;14.30;100.00;100476.88;4939093;29;20031;-87
2023/04/22 13:02:20;;;;;;;13.40;10.23;;;;;;;14.21;100.00;100485.59;4941176;29;20031;-88
2023/04/22 13:04:58;;;;;;;11.70;10.25;;;;;;;14.17;100.00;100486.50;4931202;23;20052;-87
2023/04/22 13:07:26;;;;;;;15.98;10.48;;;;;;;14.15;100.00;100511.00;4911556;29;20040;-88
2023/04/22 13:09:57;;;;;;;14.98;11.43;;;;;;;13.80;100.00;100464.59;4901552;29;20051;-88
2023/04/22 13:12:32;;;;;;;15.00;10.93;;;;;;;13.84;100.00;100495.25;4920364;29;20112;-89
2023/04/22 13:14:57;;;;;;;14.30;11.37;;;;;;;13.96;100.00;100508.31;4902450;29;20399;-84
2023/04/22 13:17:25;;;;;;;18.48;11.82;;;;;;;13.84;100.00;100473.69;4895680;29;20687;-83
2023/04/22 13:19:56;;;;;;;16.50;11.90;;;;;;;13.97;100.00;100458.72;4898834;29;20020;-86
2023/04/22 13:22:26;;;;;;;17.52;12.77;;;;;;;14.57;100.00;100505.06;4904215;29;20033;-86
2023/04/22 13:25:01;;;;;;;15.77;12.15;;;;;;;14.39;100.00;100457.06;4897202;29;20052;-86
2023/04/22 13:27:26;;;;;;;15.48;11.25;;;;;;;14.45;100.00;100465.06;4900323;29;20425;-85
2023/04/22 13:30:05;;;;;;;;;;;;;;;;;;;;;
2023/04/22 13:32:39;;;;;;;13.73;11.25;;;;;;;14.50;100.00;100470.38;4893284;29;20043;-86
2023/04/22 13:35:08;;;;;;;18.58;11.73;;;;;;;14.67;100.00;100497.63;4893116;29;20101;-85
2023/04/22 13:37:33;;;;;;;14.65;11.65;;;;;;;14.80;100.00;100493.41;4884320;29;20033;-86
2023/04/22 13:39:58;;;;;;;16.27;12.53;;;;;;;14.98;100.00;100497.16;4915818;29;20038;-87
2023/04/22 13:42:24;;;;;;;12.80;11.43;;;;;;;15.17;100.00;100490.91;4896977;29;20281;-85
2023/04/22 13:44:51;;;;;;;14.67;11.43;;;;;;;15.24;100.00;100491.31;4894158;29;20052;-86
2023/04/22 13:47:16;;;;;;;15.52;12.10;;;;;;;15.31;100.00;100484.75;4896307;29;20500;-85